INFORMAÇÕES METEOROLÓGICAS
METAR FOR PADK
ADDS - METARS form results

(2226 UTC 17 February 2019)
Data provider http://aviationweather.gov/metar/data/
 
METAR text: PADK 172220Z AUTO 22034G41KT 4SM -RA BR OVC013 04/02 A2887 RMK AO2 PK WND 23041/2217 P0000
Conditions at: PADK (ADAK NAS , AK, US) observed 2220 UTC 17 February 2019
Temperature: 4.0°C (39°F)
Dewpoint: 2.0°C (36°F) [RH = 87%]
Pressure (altimeter): 28.87 inches Hg (977.7 mb)
Winds: from the SW (220 degrees) at 39 MPH (34 knots; 17.5 m/s)
gusting to 47 MPH (41 knots; 21.1 m/s)
Visibility: 4 miles ( 6 km)
Ceiling: 1300 feet AGL
Clouds: overcast cloud deck at 1300 feet AGL
Weather: -RA BR  (light rain, mist)

METAR text: PADK 172213Z AUTO 23031G38KT 2SM -RA BR BKN015 OVC021 04/02 A2887 RMK AO2 PK WND 22038/2212 VIS 1 1/4V3 P0000
Conditions at: PADK (ADAK NAS , AK, US) observed 2213 UTC 17 February 2019
Temperature: 4.0°C (39°F)
Dewpoint: 2.0°C (36°F) [RH = 87%]
Pressure (altimeter): 28.87 inches Hg (977.7 mb)
Winds: from the SW (230 degrees) at 36 MPH (31 knots; 15.9 m/s)
gusting to 44 MPH (38 knots; 19.5 m/s)
Visibility: 2.00 miles (3.22 km)
Ceiling: 1500 feet AGL
Clouds: broken clouds at 1500 feet AGL
overcast cloud deck at 2100 feet AGL
Weather: -RA BR  (light rain, mist)

METAR text: PADK 172206Z AUTO 22029G38KT 3SM -RA BR BKN015 OVC023 04/02 A2886 RMK AO2 PK WND 22038/2201 P0000
Conditions at: PADK (ADAK NAS , AK, US) observed 2206 UTC 17 February 2019
Temperature: 4.0°C (39°F)
Dewpoint: 2.0°C (36°F) [RH = 87%]
Pressure (altimeter): 28.86 inches Hg (977.4 mb)
Winds: from the SW (220 degrees) at 33 MPH (29 knots; 14.9 m/s)
gusting to 44 MPH (38 knots; 19.5 m/s)
Visibility: 3 miles ( 5 km)
Ceiling: 1500 feet AGL
Clouds: broken clouds at 1500 feet AGL
overcast cloud deck at 2300 feet AGL
Weather: -RA BR  (light rain, mist)

METAR text: PADK 172156Z AUTO 22027G41KT 2 1/2SM -RA BR SCT017 OVC023 04/02 A2886 RMK AO2 PK WND 22041/2149 RAE2058B14UPB2058E14 SLP772 P0001 T00390017
Conditions at: PADK (ADAK NAS , AK, US) observed 2156 UTC 17 February 2019
Temperature: 3.9°C (39°F)
Dewpoint: 1.7°C (35°F) [RH = 86%]
Pressure (altimeter): 28.86 inches Hg (977.4 mb)
[Sea-level pressure:  977.2 mb]
Winds: from the SW (220 degrees) at 31 MPH (27 knots; 13.9 m/s)
gusting to 47 MPH (41 knots; 21.1 m/s)
Visibility: 2.50 miles (4.02 km)
Ceiling: 2300 feet AGL
Clouds: scattered clouds at 1700 feet AGL
overcast cloud deck at 2300 feet AGL
Weather: -RA BR  (light rain, mist)

 MAPA DO AEROPORTO

 INFORMAÇÕES DA PISTA
Pista 05 Tamanho da pista 7790 ft Largura da pista 200 ft
Elevação da pista 17 ft Ranhura da pista 0 ft Proa da pista 61
Pista 23 Tamanho da pista 7790 ft Largura da pista 200 ft
Elevação da pista 15 ft Ranhura da pista 0 ft Proa da pista 241
Pista 18 Tamanho da pista 7605 ft Largura da pista 200 ft
Elevação da pista 6 ft Ranhura da pista 0 ft Proa da pista 185
Pista 36 Tamanho da pista 7605 ft Largura da pista 200 ft
Elevação da pista 4 ft Ranhura da pista 0 ft Proa da pista 5

 FREQUÊNCIAS DO AEROPORTO

 AUXÍLIOS DE NAVEGAÇÃO PRÓXIMOS AO AEROPORTO
Tipo NDB-DME Nome Mount Moffett Frequência 530 KHZ
Tipo TACAN Nome Adak Frequência 113000 KHZ



Powered by Mercosul Lnhas Aereas